Time;durP1;ratioP1;P1;durP2;ratioP2;P2;SDS_P1;SDS_P2;PMS_P1;PMS_P2;Temp;Humidity;BMP_temperature;BMP_pressure;BME280_temperature;BME280_humidity;BME280_pressure;Samples;Min_cycle;Max_cycle;Signal;HPM_P1;HPM_P2
2021/12/15 00:00:23;;;;;;;;;43.00;35.25;;;;;10.38;70.74;102504.78;5042803;28;45420;-65
2021/12/15 00:02:51;;;;;;;;;50.00;38.75;;;;;10.27;69.94;102486.44;5074826;28;45581;-64
2021/12/15 00:05:23;;;;;;;;;42.25;38.00;;;;;10.31;70.87;102493.44;5061842;28;46688;-65
2021/12/15 00:07:56;;;;;;;;;46.75;36.75;;;;;10.35;70.24;102495.09;5078803;28;45897;-62
2021/12/15 00:10:23;;;;;;;;;44.50;38.50;;;;;10.40;70.23;102500.31;5078426;28;45441;-68
2021/12/15 00:12:50;;;;;;;;;41.25;37.00;;;;;10.41;70.50;102499.38;5078833;28;45506;-66
2021/12/15 00:15:17;;;;;;;;;44.00;39.75;;;;;10.38;70.32;102492.38;5079123;28;46147;-66
2021/12/15 00:17:42;;;;;;;;;40.25;36.25;;;;;10.39;70.58;102496.75;5078685;28;45440;-63
2021/12/15 00:20:12;;;;;;;;;46.25;37.25;;;;;10.38;70.63;102495.03;5080412;28;45397;-69
2021/12/15 00:22:39;;;;;;;;;40.00;36.50;;;;;10.34;70.89;102498.69;5080297;28;45588;-67
2021/12/15 00:25:07;;;;;;;;;43.25;37.00;;;;;10.33;70.43;102492.50;5079911;28;45574;-64
2021/12/15 00:27:33;;;;;;;;;49.25;40.50;;;;;10.37;69.93;102503.03;5061161;28;45367;-65
2021/12/15 00:29:58;;;;;;;;;42.50;36.75;;;;;10.28;70.05;102482.84;5081236;28;45460;-63
2021/12/15 00:32:24;;;;;;;;;40.75;33.75;;;;;10.34;70.14;102490.69;5076651;28;45370;-63
2021/12/15 00:34:51;;;;;;;;;40.75;37.25;;;;;10.36;70.96;102491.53;5042827;28;46171;-63
2021/12/15 00:37:18;;;;;;;;;45.00;39.50;;;;;10.32;71.21;102495.19;5076928;28;45468;-66
2021/12/15 00:39:44;;;;;;;;;46.50;37.75;;;;;10.25;70.72;102477.63;5078749;28;45228;-68
2021/12/15 00:42:10;;;;;;;;;49.25;36.25;;;;;10.27;70.45;102487.31;5079508;28;45459;-68
2021/12/15 00:44:36;;;;;;;;;45.25;40.00;;;;;10.23;70.59;102484.75;5079450;28;46456;-68
2021/12/15 00:47:03;;;;;;;;;47.25;37.25;;;;;10.25;70.38;102481.16;5078791;28;45397;-66
2021/12/15 00:49:28;;;;;;;;;51.50;38.50;;;;;10.23;70.04;102484.75;5079283;28;45344;-67
2021/12/15 00:51:54;;;;;;;;;37.25;33.00;;;;;10.23;70.17;102484.75;5077903;28;45346;-69
2021/12/15 00:54:22;;;;;;;;;45.00;37.25;;;;;10.23;70.43;102490.09;5059343;28;45460;-67
2021/12/15 00:56:52;;;;;;;;;29.00;28.75;;;;;10.19;69.26;102494.56;5077755;28;45588;-65
2021/12/15 00:59:18;;;;;;;;;45.50;31.50;;;;;10.12;69.90;102486.78;5060185;28;45446;-64
2021/12/15 01:01:44;;;;;;;;;35.75;31.50;;;;;10.13;69.55;102500.03;5077855;28;45522;-65
2021/12/15 01:04:12;;;;;;;;;34.25;31.25;;;;;10.10;69.94;102493.91;5078018;28;45909;-66
2021/12/15 01:06:46;;;;;;;;;33.00;31.00;;;;;10.14;69.02;102498.25;5078078;28;45185;-66
2021/12/15 01:09:18;;;;;;;;;28.75;27.25;;;;;10.11;69.99;102485.03;5078469;28;45350;-66
2021/12/15 01:22:25;;;;;;;;;32.00;28.50;;;;;10.23;69.72;102493.63;5078270;28;45321;-65
2021/12/15 01:24:53;;;;;;;;;33.50;30.50;;;;;10.23;70.01;102482.09;5077603;28;46302;-68
2021/12/15 01:27:19;;;;;;;;;31.25;29.00;;;;;10.23;69.35;102479.44;5075386;28;45543;-65
2021/12/15 01:29:45;;;;;;;;;30.00;26.00;;;;;10.30;69.00;102486.38;5078128;28;45429;-65
2021/12/15 01:32:10;;;;;;;;;34.75;27.25;;;;;10.30;68.47;102491.69;5078245;28;45427;-63
2021/12/15 01:34:36;;;;;;;;;34.00;29.25;;;;;10.30;69.71;102486.38;5077516;28;45503;-65
2021/12/15 01:37:02;;;;;;;;;30.75;30.00;;;;;10.27;69.60;102492.63;5069621;28;45304;-69
2021/12/15 01:39:28;;;;;;;;;36.75;30.00;;;;;10.28;68.83;102489.03;5077100;28;45404;-65
2021/12/15 01:41:56;;;;;;;;;31.50;28.75;;;;;10.28;69.08;102488.16;5077836;28;45849;-67
2021/12/15 01:46:55;;;;;;;;;31.75;29.75;;;;;10.29;68.23;102490.81;5077482;28;45320;-67
2021/12/15 01:49:24;;;;;;;;;42.25;33.75;;;;;10.24;69.15;102491.81;5071711;28;45353;-67
2021/12/15 01:51:50;;;;;;;;;30.50;29.25;;;;;10.25;68.79;102498.91;5077641;28;45693;-66
2021/12/15 01:54:17;;;;;;;;;25.75;24.75;;;;;10.24;69.56;102487.38;5056318;28;46722;-69
2021/12/15 01:56:44;;;;;;;;;34.75;31.50;;;;;10.25;68.73;102488.25;5051598;28;45334;-67
2021/12/15 01:59:10;;;;;;;;;26.50;25.75;;;;;10.24;69.07;102492.69;5078349;28;45730;-67
2021/12/15 02:01:37;;;;;;;;;31.50;26.00;;;;;10.30;69.21;102502.34;5076469;28;45537;-65
2021/12/15 02:04:03;;;;;;;;;37.25;31.75;;;;;10.33;68.45;102507.56;5076916;28;45373;-64
2021/12/15 02:06:28;;;;;;;;;38.00;30.75;;;;;10.29;69.17;102500.59;5058639;28;45348;-66
2021/12/15 02:08:54;;;;;;;;;38.00;34.25;;;;;10.28;69.62;102498.81;5059557;28;45356;-64
2021/12/15 02:11:20;;;;;;;;;36.00;27.00;;;;;10.32;68.79;102506.69;5076826;28;45335;-66
2021/12/15 02:13:46;;;;;;;;;35.50;29.75;;;;;10.29;69.53;102501.47;5039063;28;45524;-65
2021/12/15 02:16:12;;;;;;;;;34.25;29.25;;;;;10.30;69.11;102512.97;5077429;28;45767;-67
2021/12/15 02:18:45;;;;;;;;;30.25;29.50;;;;;10.27;68.85;102513.03;5077897;28;45316;-67
2021/12/15 02:21:19;;;;;;;;;38.50;29.75;;;;;10.35;68.75;102516.38;5077087;28;45521;-65
2021/12/15 02:23:51;;;;;;;;;36.50;31.75;;;;;10.38;68.84;102510.09;5055052;28;46247;-68
2021/12/15 02:26:34;;;;;;;;;37.25;35.25;;;;;10.40;68.31;102519.78;5069156;28;45291;-71
2021/12/15 02:29:02;;;;;;;;;32.75;26.75;;;;;10.37;68.76;102511.91;5077151;28;45476;-65
2021/12/15 02:39:42;;;;;;;;;38.25;32.75;;;;;10.43;68.75;102516.22;5076624;28;45243;-65
2021/12/15 02:42:08;;;;;;;;;32.25;32.00;;;;;10.40;69.23;102516.25;5055328;28;45307;-63
2021/12/15 02:44:33;;;;;;;;;42.75;31.25;;;;;10.30;68.62;102508.53;5071581;28;46495;-67
2021/12/15 02:46:59;;;;;;;;;32.00;26.75;;;;;10.34;69.12;102504.88;5056726;28;45446;-66
2021/12/15 02:49:27;;;;;;;;;23.25;23.00;;;;;10.42;69.43;102518.00;5057575;28;44702;-67
2021/12/15 02:51:58;;;;;;;;;29.75;28.50;;;;;10.41;69.07;102520.66;5077628;28;45450;-65
2021/12/15 02:54:24;;;;;;;;;37.75;30.25;;;;;10.39;69.42;102515.38;5077071;28;45460;-67
2021/12/15 02:56:53;;;;;;;;;31.00;28.75;;;;;10.39;69.06;102507.41;5057319;28;45532;-67
2021/12/15 02:59:29;;;;;;;;;34.00;31.00;;;;;10.21;69.25;102483.91;5067796;28;45320;-68
2021/12/15 03:02:16;;;;;;;;;34.25;31.75;;;;;10.43;69.42;102514.41;5077221;28;45314;-65
2021/12/15 03:07:15;;;;;;;;;35.25;31.75;;;;;10.41;69.17;102510.91;5070762;28;45192;-68
2021/12/15 03:17:37;;;;;;;;;34.00;29.00;;;;;10.39;68.93;102504.75;5075915;28;45189;-70
2021/12/15 03:20:06;;;;;;;;;34.00;27.25;;;;;10.37;68.96;102513.69;5076602;28;45307;-64
2021/12/15 03:22:32;;;;;;;;;35.25;24.50;;;;;10.35;68.83;102503.09;5076091;28;45607;-66
2021/12/15 03:24:58;;;;;;;;;27.25;26.75;;;;;10.37;68.85;102509.22;5074835;28;46720;-66
2021/12/15 03:33:14;;;;;;;;;25.50;23.00;;;;;10.35;68.97;102505.75;5074568;28;45426;-67
2021/12/15 03:36:12;;;;;;;;;35.00;30.00;;;;;10.44;68.30;102510.84;5075328;28;45533;-65
2021/12/15 03:38:30;;;;;;;;;28.75;25.50;;;;;10.43;69.03;102511.75;5073543;28;45626;-67
2021/12/15 03:40:56;;;;;;;;;28.75;24.50;;;;;10.40;68.90;102510.94;5076349;28;45472;-68
2021/12/15 03:43:22;;;;;;;;;32.75;27.50;;;;;10.44;69.07;102520.63;5076174;28;45507;-67
2021/12/15 03:46:01;;;;;;;;;27.00;24.75;;;;;10.43;68.48;102522.41;5076275;28;45436;-67
2021/12/15 03:48:30;;;;;;;;;31.50;24.25;;;;;10.42;68.50;102518.00;5075973;28;45838;-68
2021/12/15 03:50:58;;;;;;;;;30.00;27.25;;;;;10.45;67.92;102520.56;5076990;28;45424;-68
2021/12/15 03:53:26;;;;;;;;;28.50;25.75;;;;;10.34;68.08;102514.63;5076570;28;45586;-66
2021/12/15 03:55:53;;;;;;;;;33.00;27.00;;;;;10.44;68.84;102528.59;5076778;28;47383;-67
2021/12/15 03:58:23;;;;;;;;;28.00;22.00;;;;;10.45;68.06;102523.22;5076024;28;45430;-68
2021/12/15 04:01:11;;;;;;;;;27.00;24.50;;;;;10.42;67.88;102523.31;5078572;28;45342;-68
2021/12/15 04:03:45;;;;;;;;;24.00;23.00;;;;;10.39;67.91;102518.03;5065035;28;45283;-68
2021/12/15 04:06:24;;;;;;;;;28.00;25.75;;;;;10.38;68.45;102520.75;5080498;28;45250;-66
2021/12/15 04:08:51;;;;;;;;;31.25;23.25;;;;;10.37;68.01;102519.88;5080651;28;45408;-67
2021/12/15 04:11:20;;;;;;;;;26.50;24.00;;;;;10.36;67.88;102518.13;5079509;28;45448;-69
2021/12/15 04:13:47;;;;;;;;;30.25;29.00;;;;;10.40;68.68;102509.16;5078599;28;45616;-67
2021/12/15 04:16:40;;;;;;;;;31.75;28.25;;;;;10.37;67.93;102501.25;5079762;28;45516;-65
2021/12/15 04:19:08;;;;;;;;;28.75;24.50;;;;;10.45;67.78;102514.38;5063783;28;45460;-66
2021/12/15 04:21:35;;;;;;;;;26.25;22.50;;;;;10.48;67.83;102514.28;5079986;28;45239;-69
2021/12/15 04:24:00;;;;;;;;;35.50;29.75;;;;;10.45;68.12;102509.94;5078821;28;45626;-67
2021/12/15 04:26:27;;;;;;;;;27.25;24.75;;;;;10.38;68.15;102497.69;5078788;28;45425;-67
2021/12/15 04:28:52;;;;;;;;;27.50;23.25;;;;;10.43;68.16;102506.44;5079312;28;45555;-64
2021/12/15 04:31:21;;;;;;;;;20.25;18.00;;;;;10.45;67.88;102511.72;5079651;28;45279;-70
2021/12/15 04:34:08;;;;;;;;;25.50;20.75;;;;;10.45;67.30;102507.28;5078717;28;45670;-67
2021/12/15 04:36:40;;;;;;;;;23.25;20.00;;;;;10.45;67.32;102512.59;5077784;28;46188;-64
2021/12/15 04:39:08;;;;;;;;;18.00;18.00;;;;;10.38;67.17;102513.63;5061404;28;45394;-66
2021/12/15 04:41:34;;;;;;;;;24.00;21.50;;;;;10.34;67.71;102509.31;5077394;28;45476;-68
2021/12/15 04:44:03;;;;;;;;;25.75;22.25;;;;;10.30;68.34;102502.34;5060848;28;45649;-67
2021/12/15 04:46:33;;;;;;;;;24.00;21.50;;;;;10.28;67.26;102498.81;5079177;28;46312;-66
2021/12/15 04:48:59;;;;;;;;;21.25;19.25;;;;;10.37;68.00;102517.22;5078807;28;45441;-68
2021/12/15 04:51:25;;;;;;;;;23.75;19.50;;;;;10.34;67.63;102514.63;5078626;28;45327;-64
2021/12/15 04:53:52;;;;;;;;;17.75;16.50;;;;;10.36;67.58;102525.22;5078441;28;45408;-66
2021/12/15 04:56:18;;;;;;;;;21.25;17.00;;;;;10.30;68.00;102523.59;5071115;28;45561;-65
2021/12/15 04:58:45;;;;;;;;;20.25;15.00;;;;;10.34;67.78;102525.28;5079001;28;45445;-67
2021/12/15 05:01:11;;;;;;;;;26.25;20.50;;;;;10.34;67.46;102525.28;5077402;28;45434;-66
2021/12/15 05:03:38;;;;;;;;;24.25;16.00;;;;;10.34;67.92;102522.63;5079351;28;45503;-67
2021/12/15 05:06:05;;;;;;;;;23.00;21.00;;;;;10.32;67.35;102521.78;5078436;28;46295;-64
2021/12/15 05:08:31;;;;;;;;;21.75;21.75;;;;;10.40;67.83;102535.75;5061096;28;45418;-68
2021/12/15 05:10:59;;;;;;;;;21.75;18.50;;;;;10.28;67.31;102506.78;5078915;27;45484;-65
2021/12/15 05:13:25;;;;;;;;;17.25;15.25;;;;;10.42;67.75;102544.59;5077422;28;45552;-64
2021/12/15 05:15:51;;;;;;;;;20.75;18.25;;;;;10.41;67.24;102542.81;5078212;28;45442;-66
2021/12/15 05:18:16;;;;;;;;;24.75;21.00;;;;;10.40;67.77;102540.19;5077446;28;45488;-65
2021/12/15 05:20:47;;;;;;;;;21.50;16.75;;;;;10.41;67.32;102542.81;5077813;28;45519;-64
2021/12/15 05:23:15;;;;;;;;;21.00;15.00;;;;;10.32;67.33;102535.06;5078484;28;45508;-67
2021/12/15 05:25:41;;;;;;;;;16.75;16.00;;;;;10.39;67.18;102547.31;5078140;28;45528;-66
2021/12/15 05:28:07;;;;;;;;;21.50;16.25;;;;;10.39;66.58;102554.41;5076476;28;45682;-67
2021/12/15 05:30:33;;;;;;;;;16.50;15.25;;;;;10.34;66.90;102549.22;5059252;28;45384;-69
2021/12/15 05:32:58;;;;;;;;;19.75;16.25;;;;;10.36;67.48;102558.03;5078453;28;45331;-68
2021/12/15 05:35:25;;;;;;;;;22.75;16.00;;;;;10.31;67.29;102554.63;5077452;28;45516;-67
2021/12/15 05:37:58;;;;;;;;;22.00;18.25;;;;;10.32;67.68;102557.22;5078435;28;45568;-68
2021/12/15 05:40:26;;;;;;;;;19.75;18.25;;;;;10.27;67.00;102552.91;5078205;28;46810;-67
2021/12/15 05:42:56;;;;;;;;;21.25;18.75;;;;;10.29;67.07;102561.75;5077880;28;45513;-67
2021/12/15 05:45:22;;;;;;;;;23.75;20.75;;;;;10.28;67.76;102557.31;5077971;28;46086;-65
2021/12/15 05:47:48;;;;;;;;;18.50;16.50;;;;;10.25;67.79;102558.28;5077947;27;45685;-67
2021/12/15 05:50:14;;;;;;;;;21.00;16.00;;;;;10.22;66.89;102568.97;5078976;28;45207;-67
2021/12/15 05:52:40;;;;;;;;;16.75;15.75;;;;;10.23;67.54;102564.53;5079362;28;45326;-67
2021/12/15 05:55:07;;;;;;;;;18.00;17.00;;;;;10.26;67.89;102565.34;5059752;28;46189;-66
2021/12/15 05:57:33;;;;;;;;;17.25;17.25;;;;;10.19;67.41;102549.53;5077645;28;45340;-69
2021/12/15 05:59:59;;;;;;;;;22.50;20.00;;;;;10.28;67.40;102573.28;5077030;27;45482;-67
2021/12/15 06:02:25;;;;;;;;;23.00;17.50;;;;;10.26;67.00;102570.66;5056898;28;45565;-69
2021/12/15 06:04:51;;;;;;;;;15.75;15.75;;;;;10.27;67.46;102568.88;5058807;28;47704;-70
2021/12/15 06:07:17;;;;;;;;;20.00;20.00;;;;;10.25;67.38;102570.69;5077592;28;45382;-67
2021/12/15 06:09:42;;;;;;;;;16.25;13.00;;;;;10.21;67.26;102571.66;5059366;28;45392;-64
2021/12/15 06:12:09;;;;;;;;;20.25;16.50;;;;;10.18;67.58;102566.41;5077827;28;45168;-65
2021/12/15 06:14:36;;;;;;;;;20.00;20.00;;;;;10.21;66.95;102576.97;5059598;28;46482;-67
2021/12/15 06:17:07;;;;;;;;;16.25;16.25;;;;;10.20;67.31;102589.38;5076400;28;45548;-65
2021/12/15 06:19:33;;;;;;;;;22.00;19.00;;;;;10.21;67.84;102585.84;5077968;27;45456;-66
2021/12/15 06:22:00;;;;;;;;;18.75;17.75;;;;;10.24;67.88;102588.44;5060208;28;45550;-64
2021/12/15 06:24:26;;;;;;;;;10.00;8.00;;;;;10.22;67.59;102584.06;5077066;28;46360;-64
2021/12/15 06:26:51;;;;;;;;;18.25;16.25;;;;;10.23;66.55;102592.00;5059325;28;45543;-64
2021/12/15 06:29:17;;;;;;;;;25.00;18.25;;;;;10.26;67.68;102591.06;5076342;27;45494;-64
2021/12/15 06:31:43;;;;;;;;;20.75;17.00;;;;;10.28;67.77;102599.88;5078066;28;45303;-63
2021/12/15 06:34:09;;;;;;;;;26.25;20.00;;;;;10.29;67.37;102596.31;5076522;28;45533;-65
2021/12/15 06:36:35;;;;;;;;;18.00;17.50;;;;;10.30;67.71;102600.72;5076923;28;45321;-64
2021/12/15 06:39:04;;;;;;;;;20.00;16.00;;;;;10.26;66.99;102585.72;5055663;28;45532;-63
2021/12/15 06:41:31;;;;;;;;;21.50;19.25;;;;;10.32;67.22;102601.56;5055051;28;45542;-63
2021/12/15 06:43:58;;;;;;;;;22.25;18.75;;;;;10.33;67.13;102598.00;5059419;28;47575;-64
2021/12/15 06:59:54;;;;;;;;;16.00;16.00;;;;;10.34;66.86;102610.38;5076003;28;45239;-61
2021/12/15 07:02:20;;;;;;;;;17.75;15.75;;;;;10.37;66.37;102614.75;5076580;28;45588;-61
2021/12/15 07:04:45;;;;;;;;;21.00;16.75;;;;;10.38;67.42;102617.38;5076282;28;45859;-59
2021/12/15 07:07:11;;;;;;;;;17.75;13.00;;;;;10.41;66.47;102606.66;5076349;28;45478;-61
2021/12/15 07:09:37;;;;;;;;;18.50;13.25;;;;;10.43;66.74;102625.25;5063476;28;45389;-60
2021/12/15 07:12:04;;;;;;;;;14.50;14.50;;;;;10.33;66.40;102608.63;5056300;28;45528;-64
2021/12/15 07:14:30;;;;;;;;;15.00;13.00;;;;;10.43;66.89;102619.94;5056005;28;45407;-62
2021/12/15 07:16:57;;;;;;;;;18.50;17.25;;;;;10.43;66.33;102628.78;5056166;28;45370;-60
2021/12/15 07:22:06;;;;;;;;;21.00;14.50;;;;;10.47;66.20;102633.13;5076018;28;45743;-61
2021/12/15 07:24:34;;;;;;;;;18.50;17.25;;;;;10.46;67.52;102638.50;5074699;28;46273;-59
2021/12/15 07:27:00;;;;;;;;;17.00;15.00;;;;;10.50;67.31;102638.38;5074781;28;45440;-60
2021/12/15 07:29:28;;;;;;;;;14.75;13.75;;;;;10.51;67.54;102645.44;5075042;28;45441;-63
2021/12/15 07:31:54;;;;;;;;;20.00;16.00;;;;;10.48;67.41;102634.00;5067105;28;45428;-64
2021/12/15 07:34:19;;;;;;;;;18.50;15.75;;;;;10.53;67.61;102642.75;5067935;28;46895;-60
2021/12/15 07:36:45;;;;;;;;;15.75;14.75;;;;;10.52;67.48;102647.19;5077872;28;45295;-61
2021/12/15 07:39:12;;;;;;;;;22.25;17.00;;;;;10.49;68.00;102651.72;5068429;28;45543;-61
2021/12/15 07:41:48;;;;;;;;;12.25;12.25;;;;;10.42;67.64;102634.16;5047152;28;45420;-61
2021/12/15 07:44:15;;;;;;;;;12.75;12.25;;;;;10.44;68.22;102658.94;5065536;28;45954;-61
2021/12/15 07:46:40;;;;;;;;;15.50;12.50;;;;;10.18;67.95;102614.28;5031167;28;46226;-59
2021/12/15 07:49:06;;;;;;;;;17.00;12.00;;;;;10.31;68.35;102647.69;5040994;28;45486;-61
2021/12/15 07:51:32;;;;;;;;;17.00;17.00;;;;;10.41;68.04;102670.50;5068831;28;45603;-61
2021/12/15 07:53:57;;;;;;;;;15.75;14.75;;;;;10.43;68.54;102663.38;5075590;28;46348;-58
2021/12/15 07:56:23;;;;;;;;;17.00;16.00;;;;;10.43;67.46;102668.69;5045358;28;45466;-61
2021/12/15 07:58:48;;;;;;;;;19.75;17.50;;;;;10.47;67.41;102667.72;5058330;28;45413;-61
2021/12/15 08:01:16;;;;;;;;;17.00;13.75;;;;;10.49;67.26;102668.53;5073871;28;45582;-61
2021/12/15 08:03:43;;;;;;;;;12.00;12.00;;;;;10.50;68.31;102667.63;5077362;28;45336;-60
2021/12/15 08:06:09;;;;;;;;;17.75;15.00;;;;;10.48;67.99;102666.81;5059922;28;45286;-61
2021/12/15 08:08:35;;;;;;;;;17.00;15.00;;;;;10.48;68.37;102661.47;5078441;28;45303;-61
2021/12/15 08:11:01;;;;;;;;;15.00;15.00;;;;;10.48;68.30;102665.94;5069372;28;45624;-60
2021/12/15 08:13:30;;;;;;;;;15.25;14.75;;;;;10.49;68.23;102673.88;5056829;28;46484;-60
2021/12/15 08:15:56;;;;;;;;;16.50;12.25;;;;;10.52;68.10;102681.78;5074604;28;45564;-62
2021/12/15 08:18:22;;;;;;;;;18.00;16.50;;;;;10.50;67.82;102675.63;5067285;28;45390;-60
2021/12/15 08:20:47;;;;;;;;;11.25;11.25;;;;;10.54;68.14;102673.75;5071236;28;45433;-60
2021/12/15 08:23:13;;;;;;;;;2.00;1.00;;;;;10.56;67.57;102680.81;5074264;28;45448;-60
2021/12/15 08:25:39;;;;;;;;;12.00;12.00;;;;;10.55;68.28;102667.56;5078433;28;45418;-61
2021/12/15 08:28:07;;;;;;;;;17.50;16.50;;;;;10.53;67.62;102679.97;5064575;28;45398;-61
2021/12/15 08:30:34;;;;;;;;;16.00;15.50;;;;;10.60;68.49;102676.28;5048980;28;45443;-60
2021/12/15 08:33:05;;;;;;;;;15.75;10.25;;;;;10.59;67.83;102678.06;5071430;28;45357;-60
2021/12/15 08:35:35;;;;;;;;;13.50;10.25;;;;;10.64;68.28;102685.94;5051610;27;45600;-61
2021/12/15 08:38:01;;;;;;;;;20.50;16.00;;;;;10.61;69.07;102683.34;5076627;28;45338;-61
2021/12/15 08:40:27;;;;;;;;;21.75;16.50;;;;;10.62;68.65;102680.66;5088390;27;45406;-64
2021/12/15 08:42:54;;;;;;;;;21.25;18.25;;;;;10.61;69.08;102678.03;5098675;27;45322;-62
2021/12/15 08:45:20;;;;;;;;;17.50;15.50;;;;;10.55;69.26;102684.38;5098682;27;45340;-62
2021/12/15 08:47:47;;;;;;;;;20.75;16.00;;;;;10.62;68.44;102685.97;5072600;28;45544;-60
2021/12/15 08:50:17;;;;;;;;;16.00;16.00;;;;;10.64;69.01;102684.16;5073549;28;45568;-59
2021/12/15 08:52:43;;;;;;;;;20.50;17.25;;;;;10.66;68.64;102683.25;5077929;28;46187;-60
2021/12/15 08:55:09;;;;;;;;;18.25;16.00;;;;;10.64;68.36;102684.16;5059700;28;45476;-61
2021/12/15 08:57:35;;;;;;;;;17.50;15.00;;;;;10.68;69.37;102684.06;5059828;28;45320;-60
2021/12/15 09:00:06;;;;;;;;;16.50;12.25;;;;;10.74;68.48;102683.94;5078272;28;45579;-63
2021/12/15 09:02:34;;;;;;;;;11.50;8.00;;;;;10.74;69.08;102682.16;5077971;28;45447;-60
2021/12/15 09:04:59;;;;;;;;;19.50;17.50;;;;;10.75;68.70;102685.69;5041790;28;45275;-61
2021/12/15 09:07:25;;;;;;;;;21.75;17.25;;;;;10.74;68.03;102689.28;5054982;28;45276;-60
2021/12/15 09:09:50;;;;;;;;;14.75;12.00;;;;;10.79;68.09;102682.03;5059500;28;45389;-59
2021/12/15 09:12:18;;;;;;;;;17.75;16.00;;;;;10.79;67.55;102692.69;5056199;28;45662;-60
2021/12/15 09:14:45;;;;;;;;;15.00;13.50;;;;;10.81;68.10;102693.56;5076553;28;45437;-59
2021/12/15 09:17:12;;;;;;;;;17.50;16.50;;;;;10.79;68.75;102692.69;5077871;28;45353;-59
2021/12/15 09:19:37;;;;;;;;;15.50;12.00;;;;;10.74;68.01;102684.81;5059998;28;45544;-60
2021/12/15 09:22:04;;;;;;;;;16.25;11.75;;;;;10.66;68.36;102692.09;5057220;28;45578;-60
2021/12/15 09:24:30;;;;;;;;;12.75;12.75;;;;;10.70;69.05;102703.56;5070816;28;45445;-59
2021/12/15 09:26:55;;;;;;;;;12.00;11.00;;;;;10.75;68.93;102707.00;5077836;28;45503;-60
2021/12/15 09:29:21;;;;;;;;;18.00;14.25;;;;;10.73;68.63;102698.16;5077862;28;45235;-61
2021/12/15 09:31:48;;;;;;;;;16.50;9.50;;;;;10.73;69.14;102688.41;5072243;28;46048;-58
2021/12/15 09:34:17;;;;;;;;;13.50;12.75;;;;;10.80;68.86;102699.75;5070933;28;45515;-61
2021/12/15 09:36:47;;;;;;;;;16.00;14.25;;;;;10.82;68.45;102708.63;5059156;28;45343;-61
2021/12/15 09:39:16;;;;;;;;;13.00;12.00;;;;;10.82;68.58;102701.50;5059012;28;45546;-59
2021/12/15 09:41:42;;;;;;;;;14.50;13.00;;;;;10.80;68.43;102710.41;5077706;28;45252;-60
2021/12/15 09:44:11;;;;;;;;;15.25;11.50;;;;;10.72;69.01;102694.63;5077396;28;45625;-61
2021/12/15 10:03:12;;;;;;;;;15.75;15.00;;;;;10.95;68.27;102703.88;5076936;28;45282;-60
2021/12/15 10:05:52;;;;;;;;;15.75;12.00;;;;;10.95;68.04;102703.88;5076895;28;45299;-59
2021/12/15 10:19:26;;;;;;;;;13.75;12.25;;;;;11.08;67.28;102711.53;5076841;28;45329;-60
2021/12/15 10:21:56;;;;;;;;;9.25;9.25;;;;;11.02;67.63;102706.34;5076676;28;45441;-60
2021/12/15 10:24:46;;;;;;;;;8.00;7.00;;;;;10.98;67.96;102703.78;5058428;28;47469;-60
2021/12/15 10:27:15;;;;;;;;;10.25;9.25;;;;;10.98;67.92;102709.13;5074278;28;45375;-61
2021/12/15 10:30:05;;;;;;;;;25.25;10.50;;;;;10.96;68.04;102711.81;5058604;28;45414;-60
2021/12/15 10:32:33;;;;;;;;;15.00;12.00;;;;;10.96;67.71;102711.81;5077013;28;45818;-61
2021/12/15 10:35:10;;;;;;;;;10.00;9.25;;;;;10.91;68.22;102711.03;5075754;28;45461;-60
2021/12/15 10:37:37;;;;;;;;;14.25;14.00;;;;;10.93;68.21;102707.41;5076475;28;45488;-61
2021/12/15 10:40:21;;;;;;;;;15.00;12.00;;;;;10.90;68.22;102712.81;5076276;28;45276;-63
2021/12/15 10:42:59;;;;;;;;;10.25;10.25;;;;;10.95;67.78;102703.88;5076816;28;45310;-60
2021/12/15 10:45:24;;;;;;;;;14.25;12.75;;;;;10.98;67.53;102701.13;5075862;28;46328;-62
2021/12/15 10:47:51;;;;;;;;;17.75;12.75;;;;;10.98;67.93;102704.66;5075679;28;45234;-61
2021/12/15 10:50:22;;;;;;;;;11.75;11.75;;;;;10.93;67.67;102699.44;5076326;28;45464;-61
2021/12/15 10:52:51;;;;;;;;;13.00;11.50;;;;;11.00;67.65;102702.84;5069039;28;45293;-61
2021/12/15 10:55:16;;;;;;;;;15.00;12.00;;;;;10.99;67.93;102694.91;5037470;28;47770;-62
2021/12/15 10:57:44;;;;;;;;;13.50;10.75;;;;;10.99;67.96;102698.44;5063254;28;45902;-61
2021/12/15 11:00:14;;;;;;;;;8.75;8.00;;;;;10.96;68.17;102695.84;5058253;28;45407;-62
2021/12/15 11:02:40;;;;;;;;;8.75;8.75;;;;;10.98;67.96;102704.66;5077145;28;45282;-61
2021/12/15 11:05:08;;;;;;;;;12.00;11.00;;;;;11.05;67.25;102706.25;5057985;28;46308;-62
2021/12/15 11:07:44;;;;;;;;;16.00;12.00;;;;;11.07;67.79;102698.25;5075155;28;45481;-62
2021/12/15 11:10:20;;;;;;;;;34.75;30.25;;;;;11.10;67.17;102703.50;5075305;28;45405;-60
2021/12/15 11:12:57;;;;;;;;;13.00;11.67;;;;;11.09;67.12;102696.44;5076086;28;45391;-60
2021/12/15 11:15:23;;;;;;;;;11.00;11.00;;;;;11.06;67.26;102697.34;5075610;28;45267;-62
2021/12/15 11:17:52;;;;;;;;;11.75;11.50;;;;;11.07;67.92;102695.59;5057635;28;45294;-61
2021/12/15 11:20:27;;;;;;;;;16.50;11.75;;;;;11.07;67.68;102688.47;5076429;28;45475;-61
2021/12/15 11:22:57;;;;;;;;;16.75;11.50;;;;;11.13;67.80;102698.97;5076272;28;45420;-60
2021/12/15 11:25:27;;;;;;;;;15.75;11.75;;;;;11.14;67.15;102694.50;5075617;28;45368;-60
2021/12/15 11:28:04;;;;;;;;;18.50;16.50;;;;;11.18;67.08;102696.16;5075297;28;45489;-61
2021/12/15 11:30:53;;;;;;;;;18.25;12.75;;;;;11.16;67.10;102682.03;5057377;28;45569;-60
2021/12/15 11:33:37;;;;;;;;;16.25;13.00;;;;;11.18;67.67;102694.38;5076559;28;45471;-61
2021/12/15 11:36:05;;;;;;;;;14.00;12.00;;;;;11.17;68.02;102687.31;5053958;28;47441;-60
2021/12/15 11:38:31;;;;;;;;;17.00;13.25;;;;;11.21;67.46;102689.00;5057348;28;45253;-60
2021/12/15 11:40:56;;;;;;;;;9.25;9.25;;;;;11.20;66.70;102676.59;5075705;28;45222;-60
2021/12/15 11:43:44;;;;;;;;;18.75;16.25;;;;;11.21;67.15;102681.00;5073540;28;45519;-61
2021/12/15 11:46:19;;;;;;;;;24.75;21.50;;;;;11.21;67.03;102677.47;5070830;28;46787;-61
2021/12/15 11:48:50;;;;;;;;;10.75;10.75;;;;;11.17;67.09;102678.44;5075964;28;45459;-59
2021/12/15 11:51:40;;;;;;;;;13.00;12.75;;;;;11.20;67.43;102689.06;5069957;27;45206;-60
2021/12/15 11:54:16;;;;;;;;;13.00;12.00;;;;;11.16;67.55;102682.91;5075633;28;45492;-60
2021/12/15 11:56:44;;;;;;;;;17.75;13.00;;;;;11.17;67.11;102684.66;5057729;28;47682;-61
2021/12/15 11:59:20;;;;;;;;;17.25;13.00;;;;;11.13;67.53;102676.78;5075244;28;45292;-61
2021/12/15 12:02:03;;;;;;;;;14.25;14.25;;;;;11.06;67.61;102654.75;5075155;28;45282;-61
2021/12/15 12:04:42;;;;;;;;;11.25;11.25;;;;;11.21;67.08;102681.00;5075275;28;45342;-62
2021/12/15 12:07:19;;;;;;;;;12.75;11.00;;;;;11.21;67.21;102675.69;5056709;28;46305;-61
2021/12/15 12:09:50;;;;;;;;;12.50;11.25;;;;;11.22;67.12;102672.09;5064211;28;45457;-61
2021/12/15 12:12:17;;;;;;;;;16.75;10.75;;;;;11.24;67.09;102674.72;5057119;28;45456;-61
2021/12/15 12:14:49;;;;;;;;;13.75;11.75;;;;;11.16;66.98;102650.06;5075848;28;45641;-63
2021/12/15 12:17:28;;;;;;;;;18.00;14.25;;;;;11.27;66.53;102664.00;5075582;28;45278;-61
2021/12/15 12:20:46;;;;;;;;;6.00;6.00;;;;;11.39;66.25;102670.78;5056951;28;45489;-62
2021/12/15 12:23:15;;;;;;;;;6.00;6.00;;;;;11.41;66.58;102664.50;5035405;28;45457;-61
2021/12/15 12:25:47;;;;;;;;;3.00;3.00;;;;;11.40;65.78;102659.22;5060150;28;45245;-61
2021/12/15 12:28:17;;;;;;;;;11.33;8.00;;;;;11.40;65.78;102669.88;5057124;28;46508;-61
2021/12/15 12:30:57;;;;;;;;;7.25;6.75;;;;;11.41;65.81;102668.94;5059646;28;45435;-63
2021/12/15 12:33:28;;;;;;;;;12.50;12.25;;;;;11.39;66.10;102665.47;5039076;28;45342;-60
2021/12/15 12:36:02;;;;;;;;;13.00;8.25;;;;;11.40;66.43;102659.22;5040257;28;45400;-49
2021/12/15 12:38:29;;;;;;;;;16.75;12.25;;;;;11.25;66.48;102648.97;5065829;28;46127;-56